Terminal Aerodrome Forecast
Issued by NWS Raleigh/Durham, NC

Home | Current Version | Previous Version | Text Only | Print | Product List | Glossary On
Versions: 1 2 3 4 5 6 7 8 9 10 11 12 13 14 15 16 17 18 19 20 21 22
000
FTUS42 KRAH 260540
TAFFAY
TAF
KFAY 260540Z 2606/2706 06006KT P6SM BKN035
      TEMPO 2607/2609 BKN025
     FM261300 04007KT P6SM FEW015=

USA.gov is the U.S. government's official web portal to all federal, state and local government web resources and services.